createdAt,value
2023-03-08T00:00:59.057Z,99467.50
2023-03-08T00:06:05.135Z,99457.94
2023-03-08T00:11:08.803Z,99450.94
2023-03-08T00:16:13.686Z,99445.56
2023-03-08T00:21:18.002Z,99442.03
2023-03-08T00:26:20.056Z,99436.00
2023-03-08T00:31:22.133Z,99438.66
2023-03-08T00:36:24.130Z,99438.56
2023-03-08T00:41:26.356Z,99436.00
2023-03-08T00:46:28.380Z,99448.38
2023-03-08T00:51:30.622Z,99441.50
2023-03-08T00:56:32.510Z,99441.97
2023-03-08T01:01:34.989Z,99429.00
2023-03-08T01:06:37.065Z,99424.66
2023-03-08T01:11:39.048Z,99419.47
2023-03-08T01:16:42.167Z,99411.53
2023-03-08T01:21:44.123Z,99387.81
2023-03-08T01:26:46.131Z,99379.00
2023-03-08T01:31:47.997Z,99382.50
2023-03-08T01:36:49.758Z,99374.78
2023-03-08T01:41:51.730Z,99359.34
2023-03-08T01:46:53.754Z,99360.41
2023-03-08T01:51:55.899Z,99353.38
2023-03-08T01:57:03.579Z,99349.69
2023-03-08T02:02:07.072Z,99343.66
2023-03-08T02:07:08.889Z,99353.38
2023-03-08T02:12:13.646Z,99337.41
2023-03-08T02:17:15.610Z,99327.59
2023-03-08T02:22:18.061Z,99312.94
2023-03-08T02:27:26.399Z,99293.56
2023-03-08T02:32:28.245Z,99300.44
2023-03-08T02:37:32.002Z,99303.19
2023-03-08T02:42:34.135Z,99287.31
2023-03-08T02:47:36.130Z,99301.41
2023-03-08T02:52:38.148Z,99266.34
2023-03-08T02:57:39.956Z,99257.34
2023-03-08T03:02:41.863Z,99256.44
2023-03-08T03:07:43.759Z,99247.44
2023-03-08T03:12:45.919Z,99243.19
2023-03-08T03:17:47.897Z,99227.09
2023-03-08T03:22:49.866Z,99230.03
2023-03-08T03:27:51.822Z,99222.19
2023-03-08T03:32:53.751Z,99208.22
2023-03-08T03:37:55.649Z,99214.06
2023-03-08T03:42:57.646Z,99201.03
2023-03-08T03:47:59.636Z,99199.53
2023-03-08T03:53:01.626Z,99194.97
2023-03-08T03:58:03.536Z,99187.13
2023-03-08T04:03:05.611Z,99180.06
2023-03-08T04:08:09.136Z,99175.63
2023-03-08T04:13:13.948Z,99161.41
2023-03-08T04:18:16.122Z,99145.34
2023-03-08T04:23:18.040Z,99139.50
2023-03-08T04:28:20.432Z,99126.41
2023-03-08T04:33:22.523Z,99111.25
2023-03-08T04:38:24.316Z,99100.69
2023-03-08T04:43:26.386Z,99090.09
2023-03-08T04:48:29.058Z,99083.84
2023-03-08T04:53:32.207Z,99074.97
2023-03-08T04:58:34.322Z,99066.38
2023-03-08T05:03:36.102Z,99052.91
2023-03-08T05:08:38.373Z,99044.13
2023-03-08T05:13:40.641Z,99032.81
2023-03-08T05:18:42.795Z,99022.31
2023-03-08T05:23:45.160Z,99016.41
2023-03-08T05:28:46.906Z,99002.63
2023-03-08T05:33:51.303Z,98985.19
2023-03-08T05:38:54.980Z,98973.84
2023-03-08T05:43:58.776Z,98955.88
2023-03-08T05:49:00.758Z,98946.66
2023-03-08T05:54:02.803Z,98939.25
2023-03-08T05:59:04.740Z,98934.06
2023-03-08T06:04:06.761Z,98912.06
2023-03-08T06:09:09.033Z,98920.94
2023-03-08T06:14:13.079Z,98912.25
2023-03-08T06:19:15.990Z,98891.81
2023-03-08T06:24:17.884Z,98877.84
2023-03-08T06:29:19.777Z,98864.44
2023-03-08T06:34:21.896Z,98858.25
2023-03-08T06:39:24.206Z,98849.72
2023-03-08T06:44:26.165Z,98844.44
2023-03-08T06:49:28.165Z,98844.44
2023-03-08T06:54:30.216Z,98853.41
2023-03-08T06:59:32.100Z,98860.41
2023-03-08T07:04:34.103Z,98850.16
2023-03-08T07:09:36.297Z,98853.19
2023-03-08T07:14:38.287Z,98828.66
2023-03-08T07:19:40.150Z,98819.97
2023-03-08T07:24:42.154Z,98811.06
2023-03-08T07:29:44.282Z,98805.91
2023-03-08T07:34:46.188Z,98792.88
2023-03-08T07:39:48.345Z,98792.28
2023-03-08T07:44:50.177Z,98775.66
2023-03-08T07:49:51.980Z,98775.09
2023-03-08T07:54:53.974Z,98763.44
2023-03-08T07:59:55.842Z,98745.06
2023-03-08T08:04:57.808Z,98739.03
2023-03-08T08:09:59.759Z,98744.94
2023-03-08T08:15:01.796Z,98741.44
2023-03-08T08:20:05.504Z,98728.94
2023-03-08T08:25:08.570Z,98711.50
2023-03-08T08:30:13.166Z,98701.75
2023-03-08T08:35:15.585Z,98696.47
2023-03-08T08:40:17.701Z,98701.91
2023-03-08T08:45:19.580Z,98690.22
2023-03-08T08:50:21.451Z,98688.44
2023-03-08T08:55:23.218Z,98697.44
2023-03-08T09:00:25.176Z,98693.09
2023-03-08T09:05:30.100Z,98675.00
2023-03-08T09:10:36.385Z,98672.38
2023-03-08T09:15:38.614Z,98671.63
2023-03-08T09:20:40.741Z,98679.56
2023-03-08T09:25:42.434Z,98686.97
2023-03-08T09:30:44.446Z,98675.44
2023-03-08T09:35:58.830Z,98680.84
2023-03-08T09:41:26.166Z,98649.59
2023-03-08T09:46:34.284Z,98641.88
2023-03-08T09:51:41.207Z,98637.53
2023-03-08T09:56:47.488Z,98641.75
2023-03-08T10:01:57.294Z,98640.69
2023-03-08T10:07:18.513Z,98644.28
2023-03-08T10:12:30.203Z,98643.94
2023-03-08T10:17:42.838Z,98641.66
2023-03-08T10:22:47.092Z,98633.72
2023-03-08T10:27:53.793Z,98627.03
2023-03-08T10:33:00.181Z,98613.66
2023-03-08T10:38:02.531Z,98602.13
2023-03-08T10:43:07.200Z,98589.75
2023-03-08T10:48:22.398Z,98585.25
2023-03-08T10:53:24.684Z,98581.03
2023-03-08T10:58:40.579Z,98571.91
2023-03-08T11:03:42.928Z,98576.78
2023-03-08T11:08:56.626Z,98581.00
2023-03-08T11:14:00.117Z,98589.81
2023-03-08T11:19:11.663Z,98571.47
2023-03-08T11:24:33.806Z,98581.72
2023-03-08T11:29:50.656Z,98591.75
2023-03-08T11:35:25.711Z,98588.13
2023-03-08T11:40:42.790Z,98584.88
2023-03-08T11:45:47.530Z,98567.38
2023-03-08T11:51:10.312Z,98572.91
2023-03-08T11:56:38.262Z,98569.75
2023-03-08T12:02:05.984Z,98561.59
2023-03-08T12:07:37.073Z,98553.88
2023-03-08T12:13:14.165Z,98546.00
2023-03-08T12:18:18.553Z,98538.72
2023-03-08T12:23:39.940Z,98532.41
2023-03-08T12:28:52.069Z,98530.25
2023-03-08T12:33:54.387Z,98514.53
2023-03-08T12:39:08.463Z,98517.97
2023-03-08T12:44:28.053Z,98518.34
2023-03-08T12:49:36.451Z,98527.03
2023-03-08T12:54:38.972Z,98518.81
2023-03-08T12:59:41.763Z,98518.19
2023-03-08T13:04:44.270Z,98520.94
2023-03-08T13:10:24.050Z,98519.47
2023-03-08T13:15:26.523Z,98504.59
2023-03-08T13:20:34.613Z,98484.38
2023-03-08T13:25:36.701Z,98483.41
2023-03-08T13:30:42.721Z,98494.22
2023-03-08T13:35:55.201Z,98491.69
2023-03-08T13:40:59.001Z,98473.31
2023-03-08T13:46:04.210Z,98486.38
2023-03-08T13:51:06.654Z,98478.81
2023-03-08T13:56:08.736Z,98485.06
2023-03-08T14:01:15.585Z,98483.16
2023-03-08T14:06:34.147Z,98473.75
2023-03-08T14:11:40.033Z,98487.63
2023-03-08T14:16:42.290Z,98491.31
2023-03-08T14:21:50.506Z,98495.75
2023-03-08T14:27:21.817Z,98485.63
2023-03-08T14:32:32.486Z,98480.97
2023-03-08T14:37:38.275Z,98484.69
2023-03-08T14:42:49.737Z,98490.81
2023-03-08T14:47:55.859Z,98484.69
2023-03-08T14:53:00.132Z,98485.63
2023-03-08T14:58:14.059Z,98487.34
2023-03-08T15:03:16.417Z,98489.84
2023-03-08T15:08:19.685Z,98487.34
2023-03-08T15:13:23.744Z,98490.81
2023-03-08T15:18:26.017Z,98488.06
2023-03-08T15:23:31.418Z,98485.19
2023-03-08T15:28:34.686Z,98486.06
2023-03-08T15:33:37.722Z,98481.00
2023-03-08T15:38:39.529Z,98485.44
2023-03-08T15:43:42.656Z,98489.75
2023-03-08T15:48:45.812Z,98494.09
2023-03-08T15:53:49.416Z,98496.59
2023-03-08T15:58:52.102Z,98504.53
2023-03-08T16:03:57.750Z,98510.69
2023-03-08T16:08:59.665Z,98509.22
2023-03-08T16:14:01.370Z,98512.47
2023-03-08T16:19:03.453Z,98504.53
2023-03-08T16:24:05.510Z,98506.44
2023-03-08T16:29:07.923Z,98477.59
2023-03-08T16:34:11.800Z,98462.34
2023-03-08T16:39:13.722Z,98463.19
2023-03-08T16:44:24.902Z,98467.97
2023-03-08T16:49:28.731Z,98471.47
2023-03-08T16:54:31.280Z,98470.75
2023-03-08T16:59:33.217Z,98483.84
2023-03-08T17:04:35.298Z,98480.25
2023-03-08T17:09:38.572Z,98492.00
2023-03-08T17:14:41.449Z,98478.53
2023-03-08T17:19:43.337Z,98478.69
2023-03-08T17:24:45.177Z,98475.16
2023-03-08T17:29:47.118Z,98468.31
2023-03-08T17:34:52.087Z,98463.84
2023-03-08T17:39:53.852Z,98453.28
2023-03-08T17:44:55.900Z,98456.66
2023-03-08T17:49:57.622Z,98440.47
2023-03-08T17:55:00.118Z,98458.25
2023-03-08T18:00:02.389Z,98460.28
2023-03-08T18:05:05.691Z,98474.72
2023-03-08T18:10:07.745Z,98456.56
2023-03-08T18:15:10.353Z,98490.56
2023-03-08T18:20:12.727Z,98470.38
2023-03-08T18:25:14.654Z,98466.56
2023-03-08T18:30:16.994Z,98467.75
2023-03-08T18:35:19.203Z,98460.75
2023-03-08T18:40:21.503Z,98472.31
2023-03-08T18:45:23.690Z,98464.72
2023-03-08T18:50:26.088Z,98450.31
2023-03-08T18:55:27.958Z,98450.41
2023-03-08T19:00:29.768Z,98437.66
2023-03-08T19:05:31.558Z,98437.47
2023-03-08T19:10:33.783Z,98428.06
2023-03-08T19:15:40.465Z,98432.19
2023-03-08T19:20:43.096Z,98424.13
2023-03-08T19:26:03.419Z,98426.78
2023-03-08T19:31:05.780Z,98442.06
2023-03-08T19:36:09.623Z,98439.91
2023-03-08T19:41:12.097Z,98436.63
2023-03-08T19:46:18.039Z,98448.66
2023-03-08T19:51:20.865Z,98446.38
2023-03-08T19:56:24.662Z,98428.81
2023-03-08T20:01:27.387Z,98433.16
2023-03-08T20:06:34.789Z,98416.66
2023-03-08T20:11:36.990Z,98416.78
2023-03-08T20:16:39.096Z,98409.81
2023-03-08T20:21:41.069Z,98421.22
2023-03-08T20:26:43.046Z,98423.97
2023-03-08T20:31:46.069Z,98439.47
2023-03-08T20:36:48.736Z,98431.19
2023-03-08T20:41:50.874Z,98430.66
2023-03-08T20:46:52.818Z,98414.59
2023-03-08T20:51:54.762Z,98405.47
2023-03-08T20:56:57.194Z,98398.13
2023-03-08T21:01:59.331Z,98401.97
2023-03-08T21:07:01.471Z,98391.59
2023-03-08T21:12:04.866Z,98380.38
2023-03-08T21:17:06.925Z,98378.91
2023-03-08T21:22:11.022Z,98382.16
2023-03-08T21:27:13.275Z,98376.09
2023-03-08T21:32:15.430Z,98362.22
2023-03-08T21:37:17.610Z,98364.97
2023-03-08T21:42:19.473Z,98359.81
2023-03-08T21:47:21.139Z,98342.53
2023-03-08T21:52:23.069Z,98340.66
2023-03-08T21:57:25.127Z,98329.94
2023-03-08T22:02:27.030Z,98307.00
2023-03-08T22:07:28.877Z,98312.28
2023-03-08T22:12:30.833Z,98303.03
2023-03-08T22:17:32.846Z,98309.75
2023-03-08T22:22:34.647Z,98330.31
2023-03-08T22:27:36.737Z,98297.75
2023-03-08T22:32:40.474Z,98274.66
2023-03-08T22:37:43.974Z,98283.44
2023-03-08T22:42:46.496Z,98284.63
2023-03-08T22:47:48.316Z,98279.44
2023-03-08T22:52:50.208Z,98291.84
2023-03-08T22:57:52.267Z,98272.38
2023-03-08T23:02:57.880Z,98277.66
2023-03-08T23:07:59.931Z,98268.28
2023-03-08T23:13:02.791Z,98318.28
2023-03-08T23:18:04.980Z,98297.13
2023-03-08T23:23:07.339Z,98284.75
2023-03-08T23:28:09.393Z,98287.75
2023-03-08T23:33:11.374Z,98310.97
2023-03-08T23:38:13.194Z,98286.81
2023-03-08T23:43:15.119Z,98289.31
2023-03-08T23:48:17.070Z,98312.63
2023-03-08T23:53:19.073Z,98304.22
2023-03-08T23:58:21.124Z,98292.81
